HBA weather

Plaza Corporativo Banamex Helipad
Alvaro Obregon, Distrito Federal, Mexico

Public forecast

Using degrees Celsius for public forecast. Weather courtesy of forecast.io.

METAR (pilot weather report)

Closest report is Licenciado Benito Juarez International Airport, 11.2 nm (20.8 km) ENE. Retrieved 2019/08/20 08:40 UTC (49 minutes ago):

MMMX 200840Z 30008KT 15SM FEW200 13/08 A3030 NOSIG RMK SLP089 57008 901 8/002

TAF (pilot weather forecast)

Closest forecast is Licenciado Benito Juarez International Airport, 11.2 nm (20.8 km) ENE. Retrieved 2019/08/20 06:51 UTC (3 hours ago):

TAF MMMX 200444Z 2006/2112 03010KT P6SM SCT020 SCT080 TX25/2022Z TN15/2012Z FM201800 02010KT P6SM SCT020 BKN080 PROB40 2023/2103 5SM -TSRA BKN020CB FM210700 02005KT P6SM SCT080 SCT200